Ferry Katsuragi — JI3611 — position and weather

sailwx.info

Track history (hours):
 
Tides and Currents Weather Stations Pressure Air Temp Water Temp Dewpoint Dewpoint Depression Visibility Wind Speed Wind Dir Waves Ship Positions

Ferry Katsuragi

Last reported at 2016-Aug-29 18:33 UTC. Time now 2016-Aug-29 20:01 UTC.
Position N 34°10' E 134°55'.

Length 108 m; draft 4 m.

Type: Passenger vessel. MMSI: 431301245.

Date/timePositionNaut miles runAvg speedWind from/ knotsBaromVisibWave heightAir tempDewpointWater temp
2016-Aug-29 18:33N 34°10' E 134°55'1211.8
2016-Aug-29 17:34N 34°13' E 135°09'0 0.0
2016-Aug-29 16:33N 34°13' E 135°09'0 0.0
2016-Aug-29 15:34N 34°13' E 135°09'7 6.9
2016-Aug-29 14:33N 34°11' E 135°01'9 3.1
2016-Aug-29 11:30N 34°08' E 134°50'1213.2
2016-Aug-29 10:33N 34°12' E 135°04'4 3.9
2016-Aug-29 09:33N 34°13' E 135°08'11 2.8
2016-Aug-29 05:32N 34°09' E 134°56'1111.8
2016-Aug-29 04:34N 34°13' E 135°09'6 6.2
2016-Aug-29 03:33N 34°11' E 135°01'4 1.2
2016-Aug-29 00:14N 34°09' E 134°57'1015.1
2016-Aug-28 23:33N 34°13' E 135°09'2 2.2
2016-Aug-28 22:33N 34°13' E 135°06'17 5.1
2016-Aug-28 19:07N 34°06' E 134°46'813.5
2016-Aug-28 18:33N 34°09' E 134°55'1212.0
2016-Aug-28 17:33N 34°13' E 135°09'0 0.0
2016-Aug-28 16:33N 34°13' E 135°09'0 0.0
2016-Aug-28 15:33N 34°13' E 135°09'7 6.5
2016-Aug-28 14:33N 34°12' E 135°01'9 2.8
2016-Aug-28 11:19N 34°08' E 134°51'1114.8
2016-Aug-28 10:34N 34°12' E 135°04'4 4.3
2016-Aug-28 09:33N 34°13' E 135°09'20 5.6
2016-Aug-28 06:05N 34°06' E 134°46'913.6
2016-Aug-28 05:25N 34°10' E 134°57'1112.2
2016-Aug-28 04:34N 34°13' E 135°09'7 6.7
2016-Aug-28 03:33N 34°11' E 135°01'2 0.5
2016-Aug-28 00:06N 34°10' E 134°59'814.6
2016-Aug-27 23:34N 34°13' E 135°08'2 2.4
2016-Aug-27 22:33N 34°13' E 135°05'8 2.0
2016-Aug-27 18:31N 34°09' E 134°56'1111.5
2016-Aug-27 17:33N 34°13' E 135°09'0 0.0
2016-Aug-27 16:33N 34°13' E 135°09'0 0.0
2016-Aug-27 15:33N 34°13' E 135°09'7 7.3
2016-Aug-27 14:33N 34°10' E 135°01'10 3.4
2016-Aug-27 11:31N 34°07' E 134°48'1414.3
2016-Aug-27 10:33N 34°12' E 135°04'4 4.1
2016-Aug-27 09:33N 34°13' E 135°09'20 5.7
2016-Aug-27 06:06N 34°06' E 134°46'2012.7
2016-Aug-27 04:33N 34°13' E 135°09'6 6.3
2016-Aug-27 03:33N 34°10' E 135°02'4 1.2
2016-Aug-27 00:11N 34°09' E 134°57'1015.6
2016-Aug-26 23:34N 34°13' E 135°08'3 2.7
2016-Aug-26 22:33N 34°12' E 135°05'7 1.6
2016-Aug-26 18:24N 34°10' E 134°57'1011.8
2016-Aug-26 17:33N 34°13' E 135°09'0 0.0
2016-Aug-26 16:33N 34°13' E 135°09'0 0.0
2016-Aug-26 15:34N 34°13' E 135°09'7 6.5
2016-Aug-26 14:32N 34°11' E 135°01'2 0.6
2016-Aug-26 10:34N 34°12' E 135°04'4 4.0
2016-Aug-26 09:34N 34°13' E 135°08'0 0.0
2016-Aug-26 04:34N 34°13' E 135°09'6 6.2
2016-Aug-26 03:33N 34°12' E 135°01'3 1.0
2016-Aug-26 00:09N 34°10' E 134°58'915.4
2016-Aug-25 23:34N 34°13' E 135°08'1 1.1
2016-Aug-25 22:34N 34°13' E 135°07'19 5.5
2016-Aug-25 19:07N 34°06' E 134°46'914.4
2016-Aug-25 18:31N 34°09' E 134°56'1112.1
2016-Aug-25 17:34N 34°13' E 135°09'0 0.0
2016-Aug-25 16:33N 34°13' E 135°09'0 0.0
2016-Aug-25 15:33N 34°13' E 135°09'5 5.5
2016-Aug-25 14:33N 34°11' E 135°02'6 1.6
2016-Aug-25 11:05N 34°09' E 134°56'714.0
2016-Aug-25 10:33N 34°12' E 135°04'4 3.9
2016-Aug-25 09:33N 34°13' E 135°09'0 0.0
2016-Aug-25 04:33N 34°13' E 135°09'6 6.1
2016-Aug-25 03:33N 34°12' E 135°01'3 0.8
2016-Aug-25 00:06N 34°10' E 134°58'814.9
2016-Aug-24 23:34N 34°13' E 135°08'2 1.7
2016-Aug-24 22:33N 34°13' E 135°06'7 1.8
2016-Aug-24 18:25N 34°11' E 134°57'1011.3
2016-Aug-24 17:33N 34°13' E 135°09'0 0.0
2016-Aug-24 16:33N 34°13' E 135°09'0 0.0
2016-Aug-24 15:33N 34°13' E 135°09'7 6.8
2016-Aug-24 14:33N 34°10' E 135°01'11 3.7
2016-Aug-24 11:31N 34°07' E 134°48'1414.2
2016-Aug-24 10:34N 34°12' E 135°04'4 4.1
2016-Aug-24 09:33N 34°13' E 135°09'21 6.3
2016-Aug-24 06:14N 34°05' E 134°45'2112.6
2016-Aug-24 04:33N 34°13' E 135°09'6 5.6
2016-Aug-24 03:33N 34°10' E 135°03'5 1.3
2016-Aug-23 23:34N 34°13' E 135°08'2 1.7
2016-Aug-23 22:33N 34°13' E 135°06'1615.2
2016-Aug-23 21:29N 34°05' E 134°48'1 0.6
2016-Aug-23 19:10N 34°04' E 134°47'1013.4
2016-Aug-23 18:24N 34°09' E 134°58'1011.3
2016-Aug-23 17:33N 34°13' E 135°09'0 0.0
2016-Aug-23 16:34N 34°13' E 135°09'0 0.0
2016-Aug-23 15:34N 34°13' E 135°09'6 6.3
2016-Aug-23 14:33N 34°11' E 135°01'10 3.4
2016-Aug-23 11:30N 34°08' E 134°49'1313.4
2016-Aug-23 10:34N 34°12' E 135°04'4 4.1
2016-Aug-23 09:33N 34°13' E 135°09'11 2.8
2016-Aug-23 05:30N 34°08' E 134°56'1112.2
2016-Aug-23 04:33N 34°13' E 135°09'6 6.2
2016-Aug-23 03:33N 34°11' E 135°01'5 1.5
2016-Aug-23 00:16N 34°09' E 134°56'1114.8
2016-Aug-22 23:34N 34°13' E 135°08'2 1.6
2016-Aug-22 22:33N 34°13' E 135°06'7 1.7
2016-Aug-22 18:22N 34°10' E 134°58'911.3
2016-Aug-22 17:33N 34°13' E 135°09'0 0.0
2016-Aug-22 16:33N 34°13' E 135°09'0 0.0
2016-Aug-22 15:33N 34°13' E 135°09'7 7.0
2016-Aug-22 14:33N 34°11' E 135°00'11 3.5
2016-Aug-22 11:30N 34°07' E 134°49'1414.5
2016-Aug-22 10:33N 34°12' E 135°04'4 3.9
2016-Aug-22 09:33N 34°13' E 135°09'21 6.3
2016-Aug-22 06:11N 34°05' E 134°45'2112.9
2016-Aug-22 04:33N 34°13' E 135°09'6 6.3
2016-Aug-22 03:34N 34°12' E 135°01'6 2.0
2016-Aug-22 00:20N 34°08' E 134°55'1215.4
2016-Aug-21 23:34N 34°13' E 135°08'2 2.1
2016-Aug-21 22:33N 34°13' E 135°05'21 6.5
2016-Aug-21 19:22N 34°04' E 134°43'1113.8
2016-Aug-21 18:33N 34°08' E 134°56'1212.2
2016-Aug-21 17:34N 34°13' E 135°09'0 0.0
2016-Aug-21 16:34N 34°13' E 135°09'0 0.0
2016-Aug-21 15:34N 34°13' E 135°09'6 6.4
2016-Aug-21 14:33N 34°11' E 135°01'5 1.6
2016-Aug-21 11:05N 34°08' E 134°56'815.7
2016-Aug-21 10:33N 34°12' E 135°04'4 3.6
2016-Aug-21 09:34N 34°13' E 135°09'1413.7
2016-Aug-21 08:33N 34°07' E 134°53'4 1.1
2016-Aug-21 05:25N 34°09' E 134°57'1012.2
2016-Aug-21 04:33N 34°13' E 135°09'6 6.2
2016-Aug-21 03:32N 34°11' E 135°01'3 1.0
2016-Aug-21 00:11N 34°10' E 134°57'915.1
2016-Aug-20 23:33N 34°13' E 135°08'1 1.5
2016-Aug-20 22:33N 34°13' E 135°06'1915.1
2016-Aug-20 21:19N 34°05' E 134°46'11 3.6
2016-Aug-20 18:22N 34°10' E 134°58'1011.8
2016-Aug-20 17:34N 34°13' E 135°09'0 0.0
2016-Aug-20 16:33N 34°13' E 135°09'0 0.0
2016-Aug-20 15:34N 34°13' E 135°09'5 5.5
2016-Aug-20 14:34N 34°12' E 135°02'2 0.4
2016-Aug-20 10:33N 34°12' E 135°04'4 4.0
2016-Aug-20 09:34N 34°13' E 135°09'0 0.0
2016-Aug-20 04:34N 34°13' E 135°09'6 6.0
2016-Aug-20 03:32N 34°11' E 135°02'2 0.7
2016-Aug-20 00:05N 34°10' E 134°59'815.7
2016-Aug-19 23:33N 34°13' E 135°08'2 1.9
2016-Aug-19 22:33N 34°13' E 135°06'18 5.2
2016-Aug-19 19:12N 34°06' E 134°46'  
Track history (hours):
 
Tides and Currents Weather Stations Pressure Air Temp Water Temp Dewpoint Dewpoint Depression Visibility Wind Speed Wind Dir Waves Ship Positions

Ferry Katsuragi

Last reported at 2016-Aug-29 18:33 UTC. Time now 2016-Aug-29 20:01 UTC.
Position N 34°10' E 134°55'.

Length 108 m; draft 4 m.

Type: Passenger vessel. MMSI: 431301245.

Date/timePositionNaut miles runAvg speedWind from/ knotsBaromVisibWave heightAir tempDewpointWater temp
2016-Aug-29 18:33N 34°10' E 134°55'1211.8
2016-Aug-29 17:34N 34°13' E 135°09'0 0.0
2016-Aug-29 16:33N 34°13' E 135°09'0 0.0
2016-Aug-29 15:34N 34°13' E 135°09'7 6.9
2016-Aug-29 14:33N 34°11' E 135°01'9 3.1
2016-Aug-29 11:30N 34°08' E 134°50'1213.2
2016-Aug-29 10:33N 34°12' E 135°04'4 3.9
2016-Aug-29 09:33N 34°13' E 135°08'11 2.8
2016-Aug-29 05:32N 34°09' E 134°56'1111.8
2016-Aug-29 04:34N 34°13' E 135°09'6 6.2
2016-Aug-29 03:33N 34°11' E 135°01'4 1.2
2016-Aug-29 00:14N 34°09' E 134°57'1015.1
2016-Aug-28 23:33N 34°13' E 135°09'2 2.2
2016-Aug-28 22:33N 34°13' E 135°06'17 5.1
2016-Aug-28 19:07N 34°06' E 134°46'813.5
2016-Aug-28 18:33N 34°09' E 134°55'1212.0
2016-Aug-28 17:33N 34°13' E 135°09'0 0.0
2016-Aug-28 16:33N 34°13' E 135°09'0 0.0
2016-Aug-28 15:33N 34°13' E 135°09'7 6.5
2016-Aug-28 14:33N 34°12' E 135°01'9 2.8
2016-Aug-28 11:19N 34°08' E 134°51'1114.8
2016-Aug-28 10:34N 34°12' E 135°04'4 4.3
2016-Aug-28 09:33N 34°13' E 135°09'20 5.6
2016-Aug-28 06:05N 34°06' E 134°46'913.6
2016-Aug-28 05:25N 34°10' E 134°57'1112.2
2016-Aug-28 04:34N 34°13' E 135°09'7 6.7
2016-Aug-28 03:33N 34°11' E 135°01'2 0.5
2016-Aug-28 00:06N 34°10' E 134°59'814.6
2016-Aug-27 23:34N 34°13' E 135°08'2 2.4
2016-Aug-27 22:33N 34°13' E 135°05'8 2.0
2016-Aug-27 18:31N 34°09' E 134°56'1111.5
2016-Aug-27 17:33N 34°13' E 135°09'0 0.0
2016-Aug-27 16:33N 34°13' E 135°09'0 0.0
2016-Aug-27 15:33N 34°13' E 135°09'7 7.3
2016-Aug-27 14:33N 34°10' E 135°01'10 3.4
2016-Aug-27 11:31N 34°07' E 134°48'1414.3
2016-Aug-27 10:33N 34°12' E 135°04'4 4.1
2016-Aug-27 09:33N 34°13' E 135°09'20 5.7
2016-Aug-27 06:06N 34°06' E 134°46'2012.7
2016-Aug-27 04:33N 34°13' E 135°09'6 6.3
2016-Aug-27 03:33N 34°10' E 135°02'4 1.2
2016-Aug-27 00:11N 34°09' E 134°57'1015.6
2016-Aug-26 23:34N 34°13' E 135°08'3 2.7
2016-Aug-26 22:33N 34°12' E 135°05'7 1.6
2016-Aug-26 18:24N 34°10' E 134°57'1011.8
2016-Aug-26 17:33N 34°13' E 135°09'0 0.0
2016-Aug-26 16:33N 34°13' E 135°09'0 0.0
2016-Aug-26 15:34N 34°13' E 135°09'7 6.5
2016-Aug-26 14:32N 34°11' E 135°01'2 0.6
2016-Aug-26 10:34N 34°12' E 135°04'4 4.0
2016-Aug-26 09:34N 34°13' E 135°08'0 0.0
2016-Aug-26 04:34N 34°13' E 135°09'6 6.2
2016-Aug-26 03:33N 34°12' E 135°01'3 1.0
2016-Aug-26 00:09N 34°10' E 134°58'915.4
2016-Aug-25 23:34N 34°13' E 135°08'1 1.1
2016-Aug-25 22:34N 34°13' E 135°07'19 5.5
2016-Aug-25 19:07N 34°06' E 134°46'914.4
2016-Aug-25 18:31N 34°09' E 134°56'1112.1
2016-Aug-25 17:34N 34°13' E 135°09'0 0.0
2016-Aug-25 16:33N 34°13' E 135°09'0 0.0
2016-Aug-25 15:33N 34°13' E 135°09'5 5.5
2016-Aug-25 14:33N 34°11' E 135°02'6 1.6
2016-Aug-25 11:05N 34°09' E 134°56'714.0
2016-Aug-25 10:33N 34°12' E 135°04'4 3.9
2016-Aug-25 09:33N 34°13' E 135°09'0 0.0
2016-Aug-25 04:33N 34°13' E 135°09'6 6.1
2016-Aug-25 03:33N 34°12' E 135°01'3 0.8
2016-Aug-25 00:06N 34°10' E 134°58'814.9
2016-Aug-24 23:34N 34°13' E 135°08'2 1.7
2016-Aug-24 22:33N 34°13' E 135°06'7 1.8
2016-Aug-24 18:25N 34°11' E 134°57'1011.3
2016-Aug-24 17:33N 34°13' E 135°09'0 0.0
2016-Aug-24 16:33N 34°13' E 135°09'0 0.0
2016-Aug-24 15:33N 34°13' E 135°09'7 6.8
2016-Aug-24 14:33N 34°10' E 135°01'11 3.7
2016-Aug-24 11:31N 34°07' E 134°48'1414.2
2016-Aug-24 10:34N 34°12' E 135°04'4 4.1
2016-Aug-24 09:33N 34°13' E 135°09'21 6.3
2016-Aug-24 06:14N 34°05' E 134°45'2112.6
2016-Aug-24 04:33N 34°13' E 135°09'6 5.6
2016-Aug-24 03:33N 34°10' E 135°03'5 1.3
2016-Aug-23 23:34N 34°13' E 135°08'2 1.7
2016-Aug-23 22:33N 34°13' E 135°06'1615.2
2016-Aug-23 21:29N 34°05' E 134°48'1 0.6
2016-Aug-23 19:10N 34°04' E 134°47'1013.4
2016-Aug-23 18:24N 34°09' E 134°58'1011.3
2016-Aug-23 17:33N 34°13' E 135°09'0 0.0
2016-Aug-23 16:34N 34°13' E 135°09'0 0.0
2016-Aug-23 15:34N 34°13' E 135°09'6 6.3
2016-Aug-23 14:33N 34°11' E 135°01'10 3.4
2016-Aug-23 11:30N 34°08' E 134°49'1313.4
2016-Aug-23 10:34N 34°12' E 135°04'4 4.1
2016-Aug-23 09:33N 34°13' E 135°09'11 2.8
2016-Aug-23 05:30N 34°08' E 134°56'1112.2
2016-Aug-23 04:33N 34°13' E 135°09'6 6.2
2016-Aug-23 03:33N 34°11' E 135°01'5 1.5
2016-Aug-23 00:16N 34°09' E 134°56'1114.8
2016-Aug-22 23:34N 34°13' E 135°08'2 1.6
2016-Aug-22 22:33N 34°13' E 135°06'7 1.7
2016-Aug-22 18:22N 34°10' E 134°58'911.3
2016-Aug-22 17:33N 34°13' E 135°09'0 0.0
2016-Aug-22 16:33N 34°13' E 135°09'0 0.0
2016-Aug-22 15:33N 34°13' E 135°09'7 7.0
2016-Aug-22 14:33N 34°11' E 135°00'11 3.5
2016-Aug-22 11:30N 34°07' E 134°49'1414.5
2016-Aug-22 10:33N 34°12' E 135°04'4 3.9
2016-Aug-22 09:33N 34°13' E 135°09'21 6.3
2016-Aug-22 06:11N 34°05' E 134°45'2112.9
2016-Aug-22 04:33N 34°13' E 135°09'6 6.3
2016-Aug-22 03:34N 34°12' E 135°01'6 2.0
2016-Aug-22 00:20N 34°08' E 134°55'1215.4
2016-Aug-21 23:34N 34°13' E 135°08'2 2.1
2016-Aug-21 22:33N 34°13' E 135°05'21 6.5
2016-Aug-21 19:22N 34°04' E 134°43'1113.8
2016-Aug-21 18:33N 34°08' E 134°56'1212.2
2016-Aug-21 17:34N 34°13' E 135°09'0 0.0
2016-Aug-21 16:34N 34°13' E 135°09'0 0.0
2016-Aug-21 15:34N 34°13' E 135°09'6 6.4
2016-Aug-21 14:33N 34°11' E 135°01'5 1.6
2016-Aug-21 11:05N 34°08' E 134°56'815.7
2016-Aug-21 10:33N 34°12' E 135°04'4 3.6
2016-Aug-21 09:34N 34°13' E 135°09'1413.7
2016-Aug-21 08:33N 34°07' E 134°53'4 1.1
2016-Aug-21 05:25N 34°09' E 134°57'1012.2
2016-Aug-21 04:33N 34°13' E 135°09'6 6.2
2016-Aug-21 03:32N 34°11' E 135°01'3 1.0
2016-Aug-21 00:11N 34°10' E 134°57'915.1
2016-Aug-20 23:33N 34°13' E 135°08'1 1.5
2016-Aug-20 22:33N 34°13' E 135°06'1915.1
2016-Aug-20 21:19N 34°05' E 134°46'11 3.6
2016-Aug-20 18:22N 34°10' E 134°58'1011.8
2016-Aug-20 17:34N 34°13' E 135°09'0 0.0
2016-Aug-20 16:33N 34°13' E 135°09'0 0.0
2016-Aug-20 15:34N 34°13' E 135°09'5 5.5
2016-Aug-20 14:34N 34°12' E 135°02'2 0.4
2016-Aug-20 10:33N 34°12' E 135°04'4 4.0
2016-Aug-20 09:34N 34°13' E 135°09'0 0.0
2016-Aug-20 04:34N 34°13' E 135°09'6 6.0
2016-Aug-20 03:32N 34°11' E 135°02'2 0.7
2016-Aug-20 00:05N 34°10' E 134°59'815.7
2016-Aug-19 23:33N 34°13' E 135°08'2 1.9
2016-Aug-19 22:33N 34°13' E 135°06'18 5.2
2016-Aug-19 19:12N 34°06' E 134°46'  

Dump ship's entire track history